sensor_id;sensor_type;location;lat;lon;timestamp;temperature;humidity
1359;DHT22;673;48.098;14.422;2024-02-28T00:01:49;4.50;99.90
1359;DHT22;673;48.098;14.422;2024-02-28T00:04:16;4.50;99.90
1359;DHT22;673;48.098;14.422;2024-02-28T00:06:43;4.40;99.90
1359;DHT22;673;48.098;14.422;2024-02-28T00:09:12;4.40;99.90
1359;DHT22;673;48.098;14.422;2024-02-28T00:11:42;4.40;99.90
1359;DHT22;673;48.098;14.422;2024-02-28T00:14:10;4.40;99.90
1359;DHT22;673;48.098;14.422;2024-02-28T00:16:40;4.30;99.90
1359;DHT22;673;48.098;14.422;2024-02-28T00:19:08;4.40;99.90
1359;DHT22;673;48.098;14.422;2024-02-28T00:21:37;4.40;99.90
1359;DHT22;673;48.098;14.422;2024-02-28T00:24:04;4.40;99.90
1359;DHT22;673;48.098;14.422;2024-02-28T00:26:31;4.40;99.90
1359;DHT22;673;48.098;14.422;2024-02-28T00:28:58;4.40;99.90
1359;DHT22;673;48.098;14.422;2024-02-28T00:31:25;4.40;99.90
1359;DHT22;673;48.098;14.422;2024-02-28T00:33:52;4.40;99.90
1359;DHT22;673;48.098;14.422;2024-02-28T00:36:20;4.40;99.90
1359;DHT22;673;48.098;14.422;2024-02-28T00:38:47;4.50;99.90
1359;DHT22;673;48.098;14.422;2024-02-28T00:41:14;4.50;99.90
1359;DHT22;673;48.098;14.422;2024-02-28T00:43:41;4.50;99.90
1359;DHT22;673;48.098;14.422;2024-02-28T00:46:08;4.60;99.90
1359;DHT22;673;48.098;14.422;2024-02-28T00:48:37;4.60;99.90
1359;DHT22;673;48.098;14.422;2024-02-28T00:51:04;4.50;99.90
1359;DHT22;673;48.098;14.422;2024-02-28T00:53:33;4.50;99.90
1359;DHT22;673;48.098;14.422;2024-02-28T00:56:00;4.50;99.90
1359;DHT22;673;48.098;14.422;2024-02-28T00:58:27;4.50;99.90
1359;DHT22;673;48.098;14.422;2024-02-28T01:00:55;4.50;99.90
1359;DHT22;673;48.098;14.422;2024-02-28T01:03:23;4.60;99.90
1359;DHT22;673;48.098;14.422;2024-02-28T01:05:50;4.60;99.90
1359;DHT22;673;48.098;14.422;2024-02-28T01:08:17;4.60;99.90
1359;DHT22;673;48.098;14.422;2024-02-28T01:10:46;4.60;99.90
1359;DHT22;673;48.098;14.422;2024-02-28T01:13:13;4.70;99.90
1359;DHT22;673;48.098;14.422;2024-02-28T01:15:40;4.70;99.90
1359;DHT22;673;48.098;14.422;2024-02-28T01:18:08;4.80;99.90
1359;DHT22;673;48.098;14.422;2024-02-28T01:20:35;4.80;99.90
1359;DHT22;673;48.098;14.422;2024-02-28T01:23:02;4.80;99.90
1359;DHT22;673;48.098;14.422;2024-02-28T01:25:29;4.80;99.90
1359;DHT22;673;48.098;14.422;2024-02-28T01:27:57;4.80;99.90
1359;DHT22;673;48.098;14.422;2024-02-28T01:30:25;4.80;99.90
1359;DHT22;673;48.098;14.422;2024-02-28T01:32:52;4.80;99.90
1359;DHT22;673;48.098;14.422;2024-02-28T01:35:19;4.70;99.90
1359;DHT22;673;48.098;14.422;2024-02-28T01:37:46;4.70;99.90
1359;DHT22;673;48.098;14.422;2024-02-28T01:40:13;4.60;99.90
1359;DHT22;673;48.098;14.422;2024-02-28T01:42:40;4.60;99.90
1359;DHT22;673;48.098;14.422;2024-02-28T01:45:10;4.70;99.90
1359;DHT22;673;48.098;14.422;2024-02-28T01:47:39;4.70;99.90
1359;DHT22;673;48.098;14.422;2024-02-28T01:50:07;4.70;99.90
1359;DHT22;673;48.098;14.422;2024-02-28T01:52:36;4.70;99.90
1359;DHT22;673;48.098;14.422;2024-02-28T01:55:05;4.70;99.90
1359;DHT22;673;48.098;14.422;2024-02-28T01:57:32;4.70;99.90
1359;DHT22;673;48.098;14.422;2024-02-28T02:00:00;4.70;99.90
1359;DHT22;673;48.098;14.422;2024-02-28T02:02:29;4.80;99.90
1359;DHT22;673;48.098;14.422;2024-02-28T02:04:56;4.80;99.90
1359;DHT22;673;48.098;14.422;2024-02-28T02:07:23;4.80;99.90
1359;DHT22;673;48.098;14.422;2024-02-28T02:09:51;4.80;99.90
1359;DHT22;673;48.098;14.422;2024-02-28T02:12:18;4.90;99.90
1359;DHT22;673;48.098;14.422;2024-02-28T02:14:47;4.90;99.90
1359;DHT22;673;48.098;14.422;2024-02-28T02:17:14;4.90;99.90
1359;DHT22;673;48.098;14.422;2024-02-28T02:19:42;4.90;99.90
1359;DHT22;673;48.098;14.422;2024-02-28T02:22:10;5.00;99.90
1359;DHT22;673;48.098;14.422;2024-02-28T02:24:41;5.00;99.90
1359;DHT22;673;48.098;14.422;2024-02-28T02:27:08;5.00;99.90
1359;DHT22;673;48.098;14.422;2024-02-28T02:29:35;5.00;99.90
1359;DHT22;673;48.098;14.422;2024-02-28T02:32:02;5.00;99.90
1359;DHT22;673;48.098;14.422;2024-02-28T02:34:29;4.90;99.90
1359;DHT22;673;48.098;14.422;2024-02-28T02:36:56;4.90;99.90
1359;DHT22;673;48.098;14.422;2024-02-28T02:39:23;5.00;99.90
1359;DHT22;673;48.098;14.422;2024-02-28T02:41:51;5.00;99.90
1359;DHT22;673;48.098;14.422;2024-02-28T02:44:18;5.00;99.90
1359;DHT22;673;48.098;14.422;2024-02-28T02:46:45;5.00;99.90
1359;DHT22;673;48.098;14.422;2024-02-28T02:49:12;5.00;99.90
1359;DHT22;673;48.098;14.422;2024-02-28T02:51:39;4.90;99.90
1359;DHT22;673;48.098;14.422;2024-02-28T02:54:07;4.80;99.90
1359;DHT22;673;48.098;14.422;2024-02-28T02:56:34;4.80;99.90
1359;DHT22;673;48.098;14.422;2024-02-28T02:59:03;4.80;99.90
1359;DHT22;673;48.098;14.422;2024-02-28T03:01:30;4.80;99.90
1359;DHT22;673;48.098;14.422;2024-02-28T03:03:57;4.70;99.90
1359;DHT22;673;48.098;14.422;2024-02-28T03:06:24;4.80;99.90
1359;DHT22;673;48.098;14.422;2024-02-28T03:08:51;4.70;99.90
1359;DHT22;673;48.098;14.422;2024-02-28T03:11:18;4.80;99.90
1359;DHT22;673;48.098;14.422;2024-02-28T03:13:44;4.80;99.90
1359;DHT22;673;48.098;14.422;2024-02-28T03:16:13;4.80;99.90
1359;DHT22;673;48.098;14.422;2024-02-28T03:18:40;4.90;99.90
1359;DHT22;673;48.098;14.422;2024-02-28T03:21:07;4.90;99.90
1359;DHT22;673;48.098;14.422;2024-02-28T03:23:34;4.90;99.90
1359;DHT22;673;48.098;14.422;2024-02-28T03:26:02;4.90;99.90
1359;DHT22;673;48.098;14.422;2024-02-28T03:28:29;4.90;99.90
1359;DHT22;673;48.098;14.422;2024-02-28T03:30:56;4.90;99.90
1359;DHT22;673;48.098;14.422;2024-02-28T03:33:24;5.00;99.90
1359;DHT22;673;48.098;14.422;2024-02-28T03:35:51;5.00;99.90
1359;DHT22;673;48.098;14.422;2024-02-28T03:38:18;5.00;99.90
1359;DHT22;673;48.098;14.422;2024-02-28T03:40:45;4.90;99.90
1359;DHT22;673;48.098;14.422;2024-02-28T03:43:12;4.90;99.90
1359;DHT22;673;48.098;14.422;2024-02-28T03:45:39;4.90;99.90
1359;DHT22;673;48.098;14.422;2024-02-28T03:48:07;4.80;99.90
1359;DHT22;673;48.098;14.422;2024-02-28T03:50:35;4.80;99.90
1359;DHT22;673;48.098;14.422;2024-02-28T03:53:03;4.90;99.90
1359;DHT22;673;48.098;14.422;2024-02-28T03:55:30;4.90;99.90
1359;DHT22;673;48.098;14.422;2024-02-28T03:57:57;4.80;99.90
1359;DHT22;673;48.098;14.422;2024-02-28T04:00:24;4.90;99.90
1359;DHT22;673;48.098;14.422;2024-02-28T04:02:52;4.90;99.90
1359;DHT22;673;48.098;14.422;2024-02-28T04:05:19;4.90;99.90
1359;DHT22;673;48.098;14.422;2024-02-28T04:07:47;4.90;99.90
1359;DHT22;673;48.098;14.422;2024-02-28T04:10:14;5.00;99.90
1359;DHT22;673;48.098;14.422;2024-02-28T04:12:43;5.00;99.90
1359;DHT22;673;48.098;14.422;2024-02-28T04:15:10;5.00;99.90
1359;DHT22;673;48.098;14.422;2024-02-28T04:17:38;5.00;99.90
1359;DHT22;673;48.098;14.422;2024-02-28T04:20:08;5.00;99.90
1359;DHT22;673;48.098;14.422;2024-02-28T04:22:35;5.00;99.90
1359;DHT22;673;48.098;14.422;2024-02-28T04:25:05;4.90;99.90
1359;DHT22;673;48.098;14.422;2024-02-28T04:27:32;4.90;99.90
1359;DHT22;673;48.098;14.422;2024-02-28T04:29:59;4.80;99.90
1359;DHT22;673;48.098;14.422;2024-02-28T04:32:26;4.90;99.90
1359;DHT22;673;48.098;14.422;2024-02-28T04:34:53;4.80;99.90
1359;DHT22;673;48.098;14.422;2024-02-28T04:37:21;4.80;99.90
1359;DHT22;673;48.098;14.422;2024-02-28T04:39:48;4.80;99.90
1359;DHT22;673;48.098;14.422;2024-02-28T04:42:16;4.90;99.90
1359;DHT22;673;48.098;14.422;2024-02-28T04:44:43;4.80;99.90
1359;DHT22;673;48.098;14.422;2024-02-28T04:47:10;4.90;99.90
1359;DHT22;673;48.098;14.422;2024-02-28T04:49:37;4.80;99.90
1359;DHT22;673;48.098;14.422;2024-02-28T04:52:05;4.80;99.90
1359;DHT22;673;48.098;14.422;2024-02-28T04:54:32;4.80;99.90
1359;DHT22;673;48.098;14.422;2024-02-28T04:56:59;4.80;99.90
1359;DHT22;673;48.098;14.422;2024-02-28T04:59:27;4.80;99.90
1359;DHT22;673;48.098;14.422;2024-02-28T05:01:54;4.80;99.90
1359;DHT22;673;48.098;14.422;2024-02-28T05:04:21;4.80;99.90
1359;DHT22;673;48.098;14.422;2024-02-28T05:06:49;4.80;99.90
1359;DHT22;673;48.098;14.422;2024-02-28T05:09:16;4.80;99.90
1359;DHT22;673;48.098;14.422;2024-02-28T05:11:43;4.90;99.90
1359;DHT22;673;48.098;14.422;2024-02-28T05:14:10;4.90;99.90
1359;DHT22;673;48.098;14.422;2024-02-28T05:16:38;4.90;99.90
1359;DHT22;673;48.098;14.422;2024-02-28T05:19:05;4.90;99.90
1359;DHT22;673;48.098;14.422;2024-02-28T05:21:39;4.90;99.90
1359;DHT22;673;48.098;14.422;2024-02-28T05:24:06;4.90;99.90
1359;DHT22;673;48.098;14.422;2024-02-28T05:26:35;4.90;99.90
1359;DHT22;673;48.098;14.422;2024-02-28T05:29:02;5.00;99.90
1359;DHT22;673;48.098;14.422;2024-02-28T05:31:30;5.00;99.90
1359;DHT22;673;48.098;14.422;2024-02-28T05:34:00;4.90;99.90
1359;DHT22;673;48.098;14.422;2024-02-28T05:36:28;4.90;99.90
1359;DHT22;673;48.098;14.422;2024-02-28T05:38:57;4.90;99.90
1359;DHT22;673;48.098;14.422;2024-02-28T05:41:24;4.90;99.90
1359;DHT22;673;48.098;14.422;2024-02-28T05:43:52;4.90;99.90
1359;DHT22;673;48.098;14.422;2024-02-28T05:46:19;4.80;99.90
1359;DHT22;673;48.098;14.422;2024-02-28T05:48:48;4.80;99.90
1359;DHT22;673;48.098;14.422;2024-02-28T05:51:16;4.90;99.90
1359;DHT22;673;48.098;14.422;2024-02-28T05:53:43;4.90;99.90
1359;DHT22;673;48.098;14.422;2024-02-28T05:56:10;4.90;99.90
1359;DHT22;673;48.098;14.422;2024-02-28T05:58:40;4.90;99.90
1359;DHT22;673;48.098;14.422;2024-02-28T06:01:09;4.90;99.90
1359;DHT22;673;48.098;14.422;2024-02-28T06:03:36;4.90;99.90
1359;DHT22;673;48.098;14.422;2024-02-28T06:06:03;5.00;99.90
1359;DHT22;673;48.098;14.422;2024-02-28T06:08:33;5.00;99.90
1359;DHT22;673;48.098;14.422;2024-02-28T06:11:00;5.00;99.90
1359;DHT22;673;48.098;14.422;2024-02-28T06:13:28;5.00;99.90
1359;DHT22;673;48.098;14.422;2024-02-28T06:15:55;5.00;99.90
1359;DHT22;673;48.098;14.422;2024-02-28T06:18:22;5.00;99.90
1359;DHT22;673;48.098;14.422;2024-02-28T06:20:52;4.90;99.90
1359;DHT22;673;48.098;14.422;2024-02-28T06:23:20;5.00;99.90
1359;DHT22;673;48.098;14.422;2024-02-28T06:25:48;5.00;99.90
1359;DHT22;673;48.098;14.422;2024-02-28T06:28:15;5.00;99.90
1359;DHT22;673;48.098;14.422;2024-02-28T06:30:43;5.00;99.90
1359;DHT22;673;48.098;14.422;2024-02-28T06:33:11;5.10;99.90
1359;DHT22;673;48.098;14.422;2024-02-28T06:35:39;5.10;99.90
1359;DHT22;673;48.098;14.422;2024-02-28T06:38:06;5.10;99.90
1359;DHT22;673;48.098;14.422;2024-02-28T06:40:34;5.10;99.90
1359;DHT22;673;48.098;14.422;2024-02-28T06:43:02;5.10;99.90
1359;DHT22;673;48.098;14.422;2024-02-28T06:45:30;5.10;99.90
1359;DHT22;673;48.098;14.422;2024-02-28T06:47:57;5.10;99.90
1359;DHT22;673;48.098;14.422;2024-02-28T06:50:24;5.10;99.90
1359;DHT22;673;48.098;14.422;2024-02-28T06:52:51;5.10;99.90
1359;DHT22;673;48.098;14.422;2024-02-28T06:55:19;5.10;99.90
1359;DHT22;673;48.098;14.422;2024-02-28T06:57:46;5.10;99.90
1359;DHT22;673;48.098;14.422;2024-02-28T07:00:15;5.10;99.90
1359;DHT22;673;48.098;14.422;2024-02-28T07:02:44;5.10;99.90
1359;DHT22;673;48.098;14.422;2024-02-28T07:05:12;5.20;99.90
1359;DHT22;673;48.098;14.422;2024-02-28T07:07:39;5.20;99.90
1359;DHT22;673;48.098;14.422;2024-02-28T07:10:06;5.20;99.90
1359;DHT22;673;48.098;14.422;2024-02-28T07:12:33;5.30;99.90
1359;DHT22;673;48.098;14.422;2024-02-28T07:15:00;5.30;99.90
1359;DHT22;673;48.098;14.422;2024-02-28T07:17:29;5.30;99.90
1359;DHT22;673;48.098;14.422;2024-02-28T07:19:56;5.40;99.90
1359;DHT22;673;48.098;14.422;2024-02-28T07:22:23;5.50;99.90
1359;DHT22;673;48.098;14.422;2024-02-28T07:24:50;5.50;99.90
1359;DHT22;673;48.098;14.422;2024-02-28T07:27:16;5.60;99.90
1359;DHT22;673;48.098;14.422;2024-02-28T07:29:43;5.60;99.90
1359;DHT22;673;48.098;14.422;2024-02-28T07:32:11;5.60;99.90
1359;DHT22;673;48.098;14.422;2024-02-28T07:34:39;5.60;99.90
1359;DHT22;673;48.098;14.422;2024-02-28T07:37:06;5.60;99.90
1359;DHT22;673;48.098;14.422;2024-02-28T07:39:33;5.70;99.90
1359;DHT22;673;48.098;14.422;2024-02-28T07:42:00;5.80;99.90
1359;DHT22;673;48.098;14.422;2024-02-28T07:44:27;5.80;99.90
1359;DHT22;673;48.098;14.422;2024-02-28T07:46:57;5.80;99.90
1359;DHT22;673;48.098;14.422;2024-02-28T07:49:24;5.80;99.90
1359;DHT22;673;48.098;14.422;2024-02-28T07:51:52;5.90;99.90
1359;DHT22;673;48.098;14.422;2024-02-28T07:54:20;5.90;99.90
1359;DHT22;673;48.098;14.422;2024-02-28T07:56:48;5.90;99.90
1359;DHT22;673;48.098;14.422;2024-02-28T07:59:15;6.00;99.90
1359;DHT22;673;48.098;14.422;2024-02-28T08:01:42;6.10;99.90
1359;DHT22;673;48.098;14.422;2024-02-28T08:04:09;6.10;99.90
1359;DHT22;673;48.098;14.422;2024-02-28T08:06:36;6.10;99.90
1359;DHT22;673;48.098;14.422;2024-02-28T08:09:04;6.20;99.90
1359;DHT22;673;48.098;14.422;2024-02-28T08:11:31;6.20;99.90
1359;DHT22;673;48.098;14.422;2024-02-28T08:13:58;6.20;99.90
1359;DHT22;673;48.098;14.422;2024-02-28T08:16:25;6.30;99.90
1359;DHT22;673;48.098;14.422;2024-02-28T08:18:52;6.40;99.90
1359;DHT22;673;48.098;14.422;2024-02-28T08:21:19;6.50;99.90
1359;DHT22;673;48.098;14.422;2024-02-28T08:23:45;6.50;99.90
1359;DHT22;673;48.098;14.422;2024-02-28T08:26:14;6.50;99.90
1359;DHT22;673;48.098;14.422;2024-02-28T08:28:41;6.60;99.90
1359;DHT22;673;48.098;14.422;2024-02-28T08:31:08;6.60;99.90
1359;DHT22;673;48.098;14.422;2024-02-28T08:33:35;6.60;99.90
1359;DHT22;673;48.098;14.422;2024-02-28T08:36:02;6.70;99.90
1359;DHT22;673;48.098;14.422;2024-02-28T08:38:29;6.60;99.90
1359;DHT22;673;48.098;14.422;2024-02-28T08:40:56;6.60;99.90
1359;DHT22;673;48.098;14.422;2024-02-28T08:43:24;6.60;99.90
1359;DHT22;673;48.098;14.422;2024-02-28T08:45:52;6.70;99.90
1359;DHT22;673;48.098;14.422;2024-02-28T08:48:19;6.70;99.90
1359;DHT22;673;48.098;14.422;2024-02-28T08:50:46;6.70;99.90
1359;DHT22;673;48.098;14.422;2024-02-28T08:53:14;6.80;99.90
1359;DHT22;673;48.098;14.422;2024-02-28T08:55:41;6.80;99.90
1359;DHT22;673;48.098;14.422;2024-02-28T08:58:07;6.90;99.90
1359;DHT22;673;48.098;14.422;2024-02-28T09:00:37;7.10;99.90
1359;DHT22;673;48.098;14.422;2024-02-28T09:03:04;7.10;99.90
1359;DHT22;673;48.098;14.422;2024-02-28T09:05:32;7.30;99.90
1359;DHT22;673;48.098;14.422;2024-02-28T09:07:59;7.40;99.90
1359;DHT22;673;48.098;14.422;2024-02-28T09:10:26;7.50;99.90
1359;DHT22;673;48.098;14.422;2024-02-28T09:12:54;7.60;99.90
1359;DHT22;673;48.098;14.422;2024-02-28T09:15:21;7.60;99.90
1359;DHT22;673;48.098;14.422;2024-02-28T09:17:49;7.50;99.90
1359;DHT22;673;48.098;14.422;2024-02-28T09:20:16;7.60;99.90
1359;DHT22;673;48.098;14.422;2024-02-28T09:22:43;7.70;99.90
1359;DHT22;673;48.098;14.422;2024-02-28T09:25:10;7.70;99.90
1359;DHT22;673;48.098;14.422;2024-02-28T09:27:37;7.80;99.90
1359;DHT22;673;48.098;14.422;2024-02-28T09:30:05;7.90;99.90
1359;DHT22;673;48.098;14.422;2024-02-28T09:32:33;7.80;99.90
1359;DHT22;673;48.098;14.422;2024-02-28T09:35:02;7.80;99.90
1359;DHT22;673;48.098;14.422;2024-02-28T09:37:29;8.00;99.90
1359;DHT22;673;48.098;14.422;2024-02-28T09:39:57;8.10;99.90
1359;DHT22;673;48.098;14.422;2024-02-28T09:42:24;8.20;99.90
1359;DHT22;673;48.098;14.422;2024-02-28T09:44:51;8.20;99.90
1359;DHT22;673;48.098;14.422;2024-02-28T09:47:18;8.20;99.90
1359;DHT22;673;48.098;14.422;2024-02-28T09:49:46;8.40;99.90
1359;DHT22;673;48.098;14.422;2024-02-28T09:52:15;8.40;99.90
1359;DHT22;673;48.098;14.422;2024-02-28T09:54:42;8.40;99.90
1359;DHT22;673;48.098;14.422;2024-02-28T09:57:11;8.30;99.90
1359;DHT22;673;48.098;14.422;2024-02-28T09:59:39;8.30;99.90
1359;DHT22;673;48.098;14.422;2024-02-28T10:02:10;8.40;99.90
1359;DHT22;673;48.098;14.422;2024-02-28T10:04:38;8.40;99.90
1359;DHT22;673;48.098;14.422;2024-02-28T10:07:12;8.60;99.90
1359;DHT22;673;48.098;14.422;2024-02-28T10:09:41;8.80;99.90
1359;DHT22;673;48.098;14.422;2024-02-28T10:12:09;8.90;99.90
1359;DHT22;673;48.098;14.422;2024-02-28T10:14:36;9.00;99.90
1359;DHT22;673;48.098;14.422;2024-02-28T10:17:04;9.20;99.90
1359;DHT22;673;48.098;14.422;2024-02-28T10:19:31;9.00;99.90
1359;DHT22;673;48.098;14.422;2024-02-28T10:21:59;9.10;99.90
1359;DHT22;673;48.098;14.422;2024-02-28T10:24:26;9.30;99.90
1359;DHT22;673;48.098;14.422;2024-02-28T10:26:54;9.40;99.90
1359;DHT22;673;48.098;14.422;2024-02-28T10:29:22;9.30;99.90
1359;DHT22;673;48.098;14.422;2024-02-28T10:31:50;9.40;99.90
1359;DHT22;673;48.098;14.422;2024-02-28T10:34:17;9.60;99.90
1359;DHT22;673;48.098;14.422;2024-02-28T10:36:44;9.80;99.90
1359;DHT22;673;48.098;14.422;2024-02-28T10:39:12;9.80;99.90
1359;DHT22;673;48.098;14.422;2024-02-28T10:41:40;9.90;99.90
1359;DHT22;673;48.098;14.422;2024-02-28T10:44:09;10.00;99.90
1359;DHT22;673;48.098;14.422;2024-02-28T10:46:38;10.20;99.90
1359;DHT22;673;48.098;14.422;2024-02-28T10:49:05;10.00;99.90
1359;DHT22;673;48.098;14.422;2024-02-28T10:51:35;10.20;99.90
1359;DHT22;673;48.098;14.422;2024-02-28T10:54:07;10.30;99.90
1359;DHT22;673;48.098;14.422;2024-02-28T10:56:37;10.20;99.90
1359;DHT22;673;48.098;14.422;2024-02-28T10:59:06;10.30;99.90
1359;DHT22;673;48.098;14.422;2024-02-28T11:01:36;10.50;99.90
1359;DHT22;673;48.098;14.422;2024-02-28T11:04:04;10.70;99.90
1359;DHT22;673;48.098;14.422;2024-02-28T11:06:31;10.60;99.90
1359;DHT22;673;48.098;14.422;2024-02-28T11:08:59;10.60;99.90
1359;DHT22;673;48.098;14.422;2024-02-28T11:11:30;10.60;99.90
1359;DHT22;673;48.098;14.422;2024-02-28T11:13:58;10.70;99.90
1359;DHT22;673;48.098;14.422;2024-02-28T11:16:27;10.80;99.90
1359;DHT22;673;48.098;14.422;2024-02-28T11:18:56;10.90;99.90
1359;DHT22;673;48.098;14.422;2024-02-28T11:21:23;10.90;99.90
1359;DHT22;673;48.098;14.422;2024-02-28T11:23:52;11.10;99.90
1359;DHT22;673;48.098;14.422;2024-02-28T11:26:19;11.00;99.90
1359;DHT22;673;48.098;14.422;2024-02-28T11:28:47;10.90;99.90
1359;DHT22;673;48.098;14.422;2024-02-28T11:31:14;10.70;99.90
1359;DHT22;673;48.098;14.422;2024-02-28T11:33:41;10.50;99.90
1359;DHT22;673;48.098;14.422;2024-02-28T11:36:11;10.40;99.90
1359;DHT22;673;48.098;14.422;2024-02-28T11:38:39;10.20;99.90
1359;DHT22;673;48.098;14.422;2024-02-28T11:41:06;10.10;99.90
1359;DHT22;673;48.098;14.422;2024-02-28T11:43:34;10.20;99.90
1359;DHT22;673;48.098;14.422;2024-02-28T11:46:01;10.20;99.90
1359;DHT22;673;48.098;14.422;2024-02-28T11:48:30;10.00;99.90
1359;DHT22;673;48.098;14.422;2024-02-28T11:50:58;9.90;99.90
1359;DHT22;673;48.098;14.422;2024-02-28T11:53:26;10.00;99.90
1359;DHT22;673;48.098;14.422;2024-02-28T11:55:53;9.90;99.90
1359;DHT22;673;48.098;14.422;2024-02-28T11:58:21;9.90;99.90
1359;DHT22;673;48.098;14.422;2024-02-28T12:00:48;9.80;99.90
1359;DHT22;673;48.098;14.422;2024-02-28T12:03:20;9.70;99.90
1359;DHT22;673;48.098;14.422;2024-02-28T12:05:47;9.80;99.90
1359;DHT22;673;48.098;14.422;2024-02-28T12:08:14;9.90;99.90
1359;DHT22;673;48.098;14.422;2024-02-28T12:10:43;10.00;99.90
1359;DHT22;673;48.098;14.422;2024-02-28T12:13:10;10.10;99.90
1359;DHT22;673;48.098;14.422;2024-02-28T12:15:39;10.10;99.90
1359;DHT22;673;48.098;14.422;2024-02-28T12:18:08;10.30;99.90
1359;DHT22;673;48.098;14.422;2024-02-28T12:20:35;10.20;99.90
1359;DHT22;673;48.098;14.422;2024-02-28T12:23:04;10.30;99.90
1359;DHT22;673;48.098;14.422;2024-02-28T12:25:31;10.20;99.90
1359;DHT22;673;48.098;14.422;2024-02-28T12:27:59;10.30;99.90
1359;DHT22;673;48.098;14.422;2024-02-28T12:30:26;10.00;99.90
1359;DHT22;673;48.098;14.422;2024-02-28T12:32:53;9.90;99.90
1359;DHT22;673;48.098;14.422;2024-02-28T12:35:20;9.80;99.90
1359;DHT22;673;48.098;14.422;2024-02-28T12:37:47;9.80;99.90
1359;DHT22;673;48.098;14.422;2024-02-28T12:40:23;10.00;99.90
1359;DHT22;673;48.098;14.422;2024-02-28T12:42:50;10.00;99.90
1359;DHT22;673;48.098;14.422;2024-02-28T12:45:19;10.00;99.90
1359;DHT22;673;48.098;14.422;2024-02-28T12:47:46;10.00;99.90
1359;DHT22;673;48.098;14.422;2024-02-28T12:50:13;9.90;99.90
1359;DHT22;673;48.098;14.422;2024-02-28T12:52:40;9.80;99.90
1359;DHT22;673;48.098;14.422;2024-02-28T12:55:07;9.70;99.90
1359;DHT22;673;48.098;14.422;2024-02-28T12:57:34;9.60;99.90
1359;DHT22;673;48.098;14.422;2024-02-28T13:00:01;9.70;99.90
1359;DHT22;673;48.098;14.422;2024-02-28T13:02:30;9.60;99.90
1359;DHT22;673;48.098;14.422;2024-02-28T13:04:57;9.60;99.90
1359;DHT22;673;48.098;14.422;2024-02-28T13:07:24;9.50;99.90
1359;DHT22;673;48.098;14.422;2024-02-28T13:09:51;9.50;99.90
1359;DHT22;673;48.098;14.422;2024-02-28T13:12:18;9.50;99.90
1359;DHT22;673;48.098;14.422;2024-02-28T13:14:45;9.40;99.90
1359;DHT22;673;48.098;14.422;2024-02-28T13:17:12;9.40;99.90
1359;DHT22;673;48.098;14.422;2024-02-28T13:19:42;9.30;99.90
1359;DHT22;673;48.098;14.422;2024-02-28T13:22:09;9.40;99.90
1359;DHT22;673;48.098;14.422;2024-02-28T13:24:36;9.40;99.90
1359;DHT22;673;48.098;14.422;2024-02-28T13:27:03;9.20;99.90
1359;DHT22;673;48.098;14.422;2024-02-28T13:29:30;9.20;99.90
1359;DHT22;673;48.098;14.422;2024-02-28T13:31:58;9.30;99.90
1359;DHT22;673;48.098;14.422;2024-02-28T13:34:25;9.10;99.90
1359;DHT22;673;48.098;14.422;2024-02-28T13:36:53;9.00;99.90
1359;DHT22;673;48.098;14.422;2024-02-28T13:39:20;9.00;99.90
1359;DHT22;673;48.098;14.422;2024-02-28T13:41:49;9.00;99.90
1359;DHT22;673;48.098;14.422;2024-02-28T13:44:17;8.90;99.90
1359;DHT22;673;48.098;14.422;2024-02-28T13:46:44;8.90;99.90
1359;DHT22;673;48.098;14.422;2024-02-28T13:49:12;9.20;99.90
1359;DHT22;673;48.098;14.422;2024-02-28T13:51:40;9.10;99.90
1359;DHT22;673;48.098;14.422;2024-02-28T13:54:08;9.10;99.90
1359;DHT22;673;48.098;14.422;2024-02-28T13:56:35;9.10;99.90
1359;DHT22;673;48.098;14.422;2024-02-28T13:59:03;9.20;99.90
1359;DHT22;673;48.098;14.422;2024-02-28T14:01:32;9.20;99.90
1359;DHT22;673;48.098;14.422;2024-02-28T14:03:59;9.40;99.90
1359;DHT22;673;48.098;14.422;2024-02-28T14:06:26;9.40;99.90
1359;DHT22;673;48.098;14.422;2024-02-28T14:08:53;9.40;99.90
1359;DHT22;673;48.098;14.422;2024-02-28T14:11:22;9.20;99.90
1359;DHT22;673;48.098;14.422;2024-02-28T14:13:49;9.10;99.90
1359;DHT22;673;48.098;14.422;2024-02-28T14:16:16;9.00;99.90
1359;DHT22;673;48.098;14.422;2024-02-28T14:18:45;9.00;99.90
1359;DHT22;673;48.098;14.422;2024-02-28T14:21:12;9.00;99.90
1359;DHT22;673;48.098;14.422;2024-02-28T14:23:39;8.90;99.90
1359;DHT22;673;48.098;14.422;2024-02-28T14:26:07;8.80;99.90
1359;DHT22;673;48.098;14.422;2024-02-28T14:28:35;8.80;99.90
1359;DHT22;673;48.098;14.422;2024-02-28T14:31:02;8.70;99.90
1359;DHT22;673;48.098;14.422;2024-02-28T14:33:29;8.60;99.90
1359;DHT22;673;48.098;14.422;2024-02-28T14:35:57;8.80;99.90
1359;DHT22;673;48.098;14.422;2024-02-28T14:38:24;8.80;99.90
1359;DHT22;673;48.098;14.422;2024-02-28T14:40:51;8.70;99.90
1359;DHT22;673;48.098;14.422;2024-02-28T14:43:18;8.60;99.90
1359;DHT22;673;48.098;14.422;2024-02-28T14:45:47;8.60;99.90
1359;DHT22;673;48.098;14.422;2024-02-28T14:48:14;8.60;99.90
1359;DHT22;673;48.098;14.422;2024-02-28T14:50:41;8.60;99.90
1359;DHT22;673;48.098;14.422;2024-02-28T14:53:09;8.60;99.90
1359;DHT22;673;48.098;14.422;2024-02-28T14:55:36;8.60;99.90
1359;DHT22;673;48.098;14.422;2024-02-28T14:58:03;8.60;99.90
1359;DHT22;673;48.098;14.422;2024-02-28T15:00:30;8.50;99.90
1359;DHT22;673;48.098;14.422;2024-02-28T15:02:59;8.50;99.90
1359;DHT22;673;48.098;14.422;2024-02-28T15:05:25;8.50;99.90
1359;DHT22;673;48.098;14.422;2024-02-28T15:07:52;8.50;99.90
1359;DHT22;673;48.098;14.422;2024-02-28T15:10:20;8.40;99.90
1359;DHT22;673;48.098;14.422;2024-02-28T15:12:47;8.40;99.90
1359;DHT22;673;48.098;14.422;2024-02-28T15:15:14;8.50;99.90
1359;DHT22;673;48.098;14.422;2024-02-28T15:17:41;8.50;99.90
1359;DHT22;673;48.098;14.422;2024-02-28T15:20:10;8.50;99.90
1359;DHT22;673;48.098;14.422;2024-02-28T15:22:37;8.50;99.90
1359;DHT22;673;48.098;14.422;2024-02-28T15:25:05;8.40;99.90
1359;DHT22;673;48.098;14.422;2024-02-28T15:27:33;8.50;99.90
1359;DHT22;673;48.098;14.422;2024-02-28T15:29:59;8.50;99.90
1359;DHT22;673;48.098;14.422;2024-02-28T15:32:26;8.40;99.90
1359;DHT22;673;48.098;14.422;2024-02-28T15:34:53;8.40;99.90
1359;DHT22;673;48.098;14.422;2024-02-28T15:37:22;8.50;99.90
1359;DHT22;673;48.098;14.422;2024-02-28T15:39:49;8.50;99.90
1359;DHT22;673;48.098;14.422;2024-02-28T15:42:16;8.40;99.90
1359;DHT22;673;48.098;14.422;2024-02-28T15:44:43;8.40;99.90
1359;DHT22;673;48.098;14.422;2024-02-28T15:47:10;8.40;99.90
1359;DHT22;673;48.098;14.422;2024-02-28T15:49:37;8.40;99.90
1359;DHT22;673;48.098;14.422;2024-02-28T15:52:05;8.40;99.90
1359;DHT22;673;48.098;14.422;2024-02-28T15:54:36;8.30;99.90
1359;DHT22;673;48.098;14.422;2024-02-28T15:57:04;8.20;99.90
1359;DHT22;673;48.098;14.422;2024-02-28T15:59:31;8.20;99.90
1359;DHT22;673;48.098;14.422;2024-02-28T16:01:59;8.10;99.90
1359;DHT22;673;48.098;14.422;2024-02-28T16:04:26;8.00;99.90
1359;DHT22;673;48.098;14.422;2024-02-28T16:06:53;8.00;99.90
1359;DHT22;673;48.098;14.422;2024-02-28T16:09:20;8.00;99.90
1359;DHT22;673;48.098;14.422;2024-02-28T16:11:48;8.00;99.90
1359;DHT22;673;48.098;14.422;2024-02-28T16:14:15;7.90;99.90
1359;DHT22;673;48.098;14.422;2024-02-28T16:16:43;7.90;99.90
1359;DHT22;673;48.098;14.422;2024-02-28T16:19:10;7.90;99.90